Time;durP1;ratioP1;P1;durP2;ratioP2;P2;SDS_P1;SDS_P2;PMS_P1;PMS_P2;Temp;Humidity;BMP_temperature;BMP_pressure;BME280_temperature;BME280_humidity;BME280_pressure;Samples;Min_cycle;Max_cycle;Signal;HPM_P1;HPM_P2
2022/09/01 00:01:48;;;;;;;9.20;5.47;;;;;;;14.11;76.43;99721.22;5072088;28;20495;-55
2022/09/01 00:04:15;;;;;;;8.73;5.70;;;;;;;14.12;76.27;99722.81;5071981;28;20425;-56
2022/09/01 00:06:41;;;;;;;9.93;5.70;;;;;;;14.09;76.91;99714.44;5073141;28;20059;-54
2022/09/01 00:09:12;;;;;;;8.60;6.03;;;;;;;14.08;76.58;99719.03;5071143;28;20059;-55
2022/09/01 00:11:38;;;;;;;9.88;5.75;;;;;;;14.05;76.71;99716.00;5098553;28;20438;-54
2022/09/01 00:14:05;;;;;;;13.38;6.03;;;;;;;14.05;76.67;99724.09;5059529;28;20036;-54
2022/09/01 00:16:31;;;;;;;8.35;5.57;;;;;;;14.11;76.37;99717.72;5059811;28;20021;-55
2022/09/01 00:18:56;;;;;;;9.02;5.68;;;;;;;14.06;76.42;99718.47;5065053;28;20040;-55
2022/09/01 00:21:27;;;;;;;7.97;5.28;;;;;;;13.99;76.79;99724.03;5059733;28;20849;-54
2022/09/01 00:23:52;;;;;;;11.07;5.63;;;;;;;13.94;77.10;99724.00;5103074;28;20059;-56
2022/09/01 00:26:18;;;;;;;7.85;5.40;;;;;;;14.01;76.51;99723.81;5061906;28;20021;-55
2022/09/01 00:28:43;;;;;;;7.60;5.72;;;;;;;13.95;76.53;99719.41;5065757;28;20459;-55
2022/09/01 00:31:09;;;;;;;7.45;5.47;;;;;;;13.95;76.66;99725.63;5064006;28;20526;-55
2022/09/01 00:33:35;;;;;;;13.18;6.10;;;;;;;13.91;76.67;99726.38;5069624;28;20410;-56
2022/09/01 00:36:01;;;;;;;9.15;5.63;;;;;;;13.95;76.58;99725.63;5061285;28;20077;-55
2022/09/01 00:38:29;;;;;;;9.32;5.43;;;;;;;13.97;76.59;99717.28;5070606;28;20041;-54
2022/09/01 00:40:54;;;;;;;7.68;5.65;;;;;;;14.06;76.53;99723.03;5070754;28;20603;-56
2022/09/01 00:43:22;;;;;;;10.35;5.63;;;;;;;14.05;76.13;99718.72;5066202;28;20036;-54
2022/09/01 00:45:50;;;;;;;10.35;5.72;;;;;;;14.13;78.57;99727.16;5063772;28;20032;-55
2022/09/01 00:48:15;;;;;;;7.38;5.70;;;;;;;14.08;76.74;99720.88;5060422;28;20024;-55
2022/09/01 00:50:41;;;;;;;10.90;5.57;;;;;;;13.88;77.31;99725.00;5066406;28;20489;-55
2022/09/01 00:53:07;;;;;;;10.70;6.45;;;;;;;13.75;78.19;99725.38;5071731;28;20495;-55
2022/09/01 00:55:33;;;;;;;8.57;6.07;;;;;;;13.55;79.94;99726.78;5070660;28;20032;-56
2022/09/01 00:57:58;;;;;;;10.88;6.13;;;;;;;13.52;79.38;99719.16;5066915;28;20144;-54
2022/09/01 01:00:26;;;;;;;12.18;6.68;;;;;;;13.35;79.99;99715.72;5070398;28;20092;-54
2022/09/01 01:02:57;;;;;;;10.23;6.68;;;;;;;13.46;78.46;99717.50;5056603;28;20044;-55
2022/09/01 01:05:31;;;;;;;10.70;6.00;;;;;;;13.49;78.30;99711.59;5028616;28;1177355;-55
2022/09/01 01:07:58;;;;;;;8.25;6.30;;;;;;;13.26;79.21;99720.69;5103018;28;20127;-55
2022/09/01 01:10:25;;;;;;;9.60;6.20;;;;;;;13.21;79.88;99714.44;5065104;28;20063;-54
2022/09/01 01:12:50;;;;;;;12.02;6.70;;;;;;;13.24;79.25;99711.22;5051969;28;20024;-55
2022/09/01 01:15:16;;;;;;;8.63;6.32;;;;;;;13.26;79.53;99712.63;5065369;28;20534;-55
2022/09/01 01:17:41;;;;;;;8.00;5.80;;;;;;;13.15;79.44;99711.66;5059274;28;20056;-54
2022/09/01 01:23:16;;;;;;;9.00;6.20;;;;;;;12.95;80.71;99705.97;5049388;28;20086;-54
2022/09/01 01:26:02;;;;;;;;;;;;;;;13.22;79.29;99711.47;5070168;28;20037;-54
2022/09/01 01:28:35;;;;;;;9.50;6.28;;;;;;;13.19;79.62;99708.47;5065955;28;19924;-54
2022/09/01 01:31:21;;;;;;;10.63;6.70;;;;;;;13.27;79.87;99713.44;5057316;28;20027;-55
2022/09/01 01:33:52;;;;;;;12.90;6.45;;;;;;;13.30;80.42;99699.50;5059582;28;20032;-54
2022/09/01 01:36:23;;;;;;;8.38;6.72;;;;;;;13.28;80.06;99707.00;5068425;28;20078;-54
2022/09/01 01:38:49;;;;;;;12.05;6.80;;;;;;;13.26;80.18;99709.09;5065133;28;20040;-54
2022/09/01 01:41:15;;;;;;;12.93;7.30;;;;;;;13.15;80.53;99705.44;5099612;28;20393;-54
2022/09/01 01:43:40;;;;;;;11.93;7.15;;;;;;;13.07;80.68;99698.59;5069672;28;20075;-54
2022/09/01 01:46:07;;;;;;;9.45;7.00;;;;;;;13.17;80.26;99706.81;5070586;28;20407;-55
2022/09/01 01:48:33;;;;;;;9.65;6.95;;;;;;;13.19;80.06;99706.59;5069305;28;20037;-55
2022/09/01 01:51:00;;;;;;;13.02;6.40;;;;;;;13.17;79.97;99708.72;5053395;28;20042;-55
2022/09/01 01:53:26;;;;;;;11.23;6.40;;;;;;;13.26;80.01;99706.41;5053246;28;20035;-54
2022/09/01 01:55:51;;;;;;;9.75;6.85;;;;;;;13.23;79.90;99707.72;5085312;28;20036;-54
2022/09/01 01:58:18;;;;;;;9.70;6.85;;;;;;;13.16;80.80;99713.28;5069111;28;20037;-55
2022/09/01 02:00:45;;;;;;;10.73;6.55;;;;;;;13.23;80.95;99712.28;5060671;28;20475;-55
2022/09/01 02:03:11;;;;;;;9.48;6.55;;;;;;;13.07;80.51;99709.38;5069890;28;20382;-55
2022/09/01 02:05:37;;;;;;;13.70;7.07;;;;;;;12.89;81.30;99709.66;5061036;28;20045;-54
2022/09/01 02:08:05;;;;;;;10.35;7.53;;;;;;;12.71;82.60;99705.34;5068286;28;20047;-54
2022/09/01 02:10:35;;;;;;;12.60;7.90;;;;;;;12.70;83.53;99704.53;5070100;28;20024;-54
2022/09/01 02:13:03;;;;;;;11.45;7.43;;;;;;;12.50;84.84;99706.84;5068430;28;20029;-55
2022/09/01 02:15:43;;;;;;;9.70;6.85;;;;;;;12.55;83.94;99711.50;5042748;28;20475;-54
2022/09/01 02:18:13;;;;;;;13.45;7.45;;;;;;;12.34;84.85;99703.09;5066474;28;20025;-55
2022/09/01 02:20:39;;;;;;;13.43;8.07;;;;;;;12.27;85.51;99700.56;5058654;28;20460;-54
2022/09/01 02:23:09;;;;;;;12.80;7.82;;;;;;;12.54;83.75;99705.31;5063368;28;20043;-55
2022/09/01 02:25:35;;;;;;;9.77;7.80;;;;;;;12.29;84.82;99711.88;5069802;28;20032;-55
2022/09/01 02:28:02;;;;;;;13.40;7.80;;;;;;;12.56;85.73;99708.59;5065041;28;20036;-55
2022/09/01 02:30:31;;;;;;;13.05;8.57;;;;;;;12.64;84.08;99705.50;5067594;28;20028;-55
2022/09/01 02:32:58;;;;;;;12.02;8.18;;;;;;;12.79;82.81;99701.41;5057888;28;20017;-54
2022/09/01 02:35:33;;;;;;;12.02;8.27;;;;;;;12.78;83.11;99700.63;5059778;28;20102;-54
2022/09/01 02:37:59;;;;;;;12.05;8.57;;;;;;;12.73;83.76;99704.03;5065126;28;20036;-55
2022/09/01 02:40:29;;;;;;;13.63;7.95;;;;;;;12.66;84.47;99703.38;5069750;28;20435;-55
2022/09/01 02:42:55;;;;;;;12.30;8.60;;;;;;;12.58;83.56;99695.72;5069883;28;20070;-55
2022/09/01 02:45:23;;;;;;;11.35;8.77;;;;;;;12.46;83.75;99703.84;5064631;28;20029;-54
2022/09/01 02:47:50;;;;;;;13.98;8.48;;;;;;;12.36;83.75;99692.13;5069599;28;20100;-55
2022/09/01 02:50:17;;;;;;;13.30;8.15;;;;;;;12.17;85.53;99695.00;5062723;28;20049;-54
2022/09/01 02:52:47;;;;;;;12.20;8.10;;;;;;;12.24;85.37;99694.88;5060927;28;20083;-55
2022/09/01 02:55:13;;;;;;;11.90;8.35;;;;;;;12.31;84.92;99690.16;5069592;28;20126;-55
2022/09/01 02:57:39;;;;;;;11.40;7.97;;;;;;;12.26;84.42;99688.19;5069604;28;20115;-55
2022/09/01 03:00:19;;;;;;;11.73;8.57;;;;;;;12.05;85.53;99689.69;5063872;28;20367;-54
2022/09/01 03:02:46;;;;;;;12.65;7.85;;;;;;;12.02;85.76;99690.16;5060206;28;20029;-57
2022/09/01 03:05:15;;;;;;;11.95;7.50;;;;;;;11.97;85.09;99689.25;5069222;28;20056;-55
2022/09/01 03:07:41;;;;;;;14.68;7.97;;;;;;;11.91;84.61;99685.69;5058581;28;20136;-56
2022/09/01 03:10:08;;;;;;;8.77;7.15;;;;;;;12.03;84.30;99688.28;5062941;28;20149;-56
2022/09/01 03:12:34;;;;;;;11.57;7.78;;;;;;;12.06;83.87;99682.47;5069687;28;20025;-56
2022/09/01 03:14:59;;;;;;;13.52;7.57;;;;;;;12.09;84.18;99677.41;5063813;28;20107;-56
2022/09/01 03:17:25;;;;;;;9.40;7.45;;;;;;;12.09;84.45;99690.84;5068866;28;20379;-56
2022/09/01 03:19:50;;;;;;;14.82;8.52;;;;;;;12.09;84.65;99679.28;5065020;28;20463;-57
2022/09/01 03:22:16;;;;;;;12.88;8.68;;;;;;;12.06;84.77;99687.84;5063457;28;20032;-55
2022/09/01 03:24:41;;;;;;;11.15;8.10;;;;;;;12.06;84.10;99682.47;5049040;28;20033;-56
2022/09/01 03:27:10;;;;;;;16.70;8.40;;;;;;;11.98;85.17;99693.56;5063804;28;20028;-56
2022/09/01 03:29:37;;;;;;;11.85;8.70;;;;;;;11.82;85.74;99693.25;5065630;28;20078;-56
2022/09/01 03:32:03;;;;;;;16.30;8.73;;;;;;;11.74;86.46;99680.22;5053934;28;20426;-55
2022/09/01 03:34:28;;;;;;;15.32;8.27;;;;;;;11.83;87.53;99688.69;5052249;28;20026;-56
2022/09/01 03:36:55;;;;;;;14.85;9.35;;;;;;;11.82;86.52;99677.13;5051525;28;20029;-57
2022/09/01 03:39:20;;;;;;;13.70;9.82;;;;;;;11.67;87.47;99674.16;5052655;28;20021;-55
2022/09/01 03:41:46;;;;;;;17.33;9.50;;;;;;;11.94;86.48;99684.38;5090002;28;20028;-56
2022/09/01 03:44:15;;;;;;;14.40;8.85;;;;;;;11.61;87.40;99680.50;5069058;28;20029;-55
2022/09/01 03:46:41;;;;;;;13.95;8.95;;;;;;;11.49;88.13;99683.22;5068579;28;20105;-56
2022/09/01 03:49:07;;;;;;;13.80;9.68;;;;;;;11.44;87.92;99681.22;5059372;28;20044;-55
2022/09/01 03:51:32;;;;;;;17.67;10.05;;;;;;;11.74;89.10;99685.59;5064107;28;20017;-55
2022/09/01 03:53:58;;;;;;;20.13;10.02;;;;;;;11.68;87.46;99683.84;5060989;28;20092;-55
2022/09/01 03:56:27;;;;;;;15.32;9.75;;;;;;;11.66;87.24;99681.41;5067834;28;20024;-55
2022/09/01 03:58:55;;;;;;;19.23;10.15;;;;;;;11.49;87.30;99688.56;5068782;28;20119;-56
2022/09/01 04:01:20;;;;;;;16.75;9.57;;;;;;;11.64;86.74;99680.03;5062364;28;20028;-55
2022/09/01 04:03:47;;;;;;;13.40;9.05;;;;;;;11.75;87.12;99673.78;5054582;28;20024;-55
2022/09/01 04:06:13;;;;;;;15.07;9.38;;;;;;;11.62;85.89;99682.13;5071099;28;20067;-54
2022/09/01 04:08:39;;;;;;;14.77;8.82;;;;;;;11.49;86.48;99688.56;5064288;28;20028;-54
2022/09/01 04:11:17;;;;;;;12.60;9.43;;;;;;;11.21;88.10;99675.91;5069533;28;20028;-55
2022/09/01 04:13:43;;;;;;;13.95;9.43;;;;;;;11.18;88.78;99681.72;5061008;28;20593;-55
2022/09/01 04:19:24;;;;;;;11.93;9.07;;;;;;;11.42;89.49;99694.06;5068045;28;20082;-55
2022/09/01 04:21:50;;;;;;;12.57;9.45;;;;;;;11.66;87.37;99685.97;5053926;28;20017;-55
2022/09/01 04:24:17;;;;;;;18.08;9.30;;;;;;;11.21;88.65;99675.91;5067026;28;20035;-55
2022/09/01 04:26:44;;;;;;;17.23;9.35;;;;;;;11.27;88.98;99685.69;5102568;28;20016;-56
2022/09/01 04:29:11;;;;;;;12.05;8.88;;;;;;;11.57;89.68;99687.38;5072254;28;20036;-56
2022/09/01 04:31:37;;;;;;;14.15;9.68;;;;;;;11.63;87.71;99689.09;5070794;28;20020;-54
2022/09/01 04:34:11;;;;;;;14.07;9.63;;;;;;;11.56;87.10;99681.22;5069009;28;20029;-55
2022/09/01 04:36:37;;;;;;;19.38;11.77;;;;;;;11.57;88.55;99685.50;5066357;28;20047;-55
2022/09/01 04:39:07;;;;;;;14.95;10.55;;;;;;;11.71;87.18;99685.25;5060881;28;20033;-55
2022/09/01 04:41:33;;;;;;;12.63;9.70;;;;;;;11.51;87.28;99685.66;5071915;28;20546;-55
2022/09/01 04:44:03;;;;;;;16.23;10.25;;;;;;;11.65;87.38;99687.81;5071999;28;20032;-55
2022/09/01 04:46:31;;;;;;;17.33;11.32;;;;;;;11.34;88.06;99685.56;5067133;28;20040;-56
2022/09/01 04:48:57;;;;;;;25.52;11.10;;;;;;;11.27;89.46;99684.88;5056482;28;20033;-55
2022/09/01 04:51:26;;;;;;;16.75;10.77;;;;;;;11.39;89.21;99688.38;5071328;28;20032;-55
2022/09/01 04:53:56;;;;;;;19.00;10.70;;;;;;;11.30;89.30;99690.59;5060458;28;20525;-55
2022/09/01 04:56:22;;;;;;;21.13;11.17;;;;;;;11.15;89.74;99685.69;5053890;28;20767;-55
2022/09/01 04:58:48;;;;;;;18.15;9.80;;;;;;;11.24;88.84;99688.84;5058577;28;20035;-55
2022/09/01 05:01:19;;;;;;;21.75;11.40;;;;;;;11.74;87.54;99690.16;5065939;28;20024;-55
2022/09/01 05:03:45;;;;;;;15.55;10.48;;;;;;;12.82;83.52;99696.34;5071882;28;20173;-55
2022/09/01 05:06:17;;;;;;;11.88;9.07;;;;;;;13.44;77.82;99691.88;5065160;28;20178;-56
2022/09/01 05:08:44;;;;;;;11.80;8.90;;;;;;;14.18;74.79;99691.38;5068490;28;20494;-55
2022/09/01 05:11:10;;;;;;;19.13;9.10;;;;;;;14.28;75.42;99686.06;5098812;28;20032;-55
2022/09/01 05:13:37;;;;;;;16.10;8.50;;;;;;;15.41;69.06;99692.28;5068235;28;20029;-55
2022/09/01 05:16:06;;;;;;;12.70;8.30;;;;;;;14.69;71.54;99691.84;5064748;28;20029;-56
2022/09/01 05:18:32;;;;;;;13.25;7.82;;;;;;;14.41;73.23;99690.22;5065177;28;20048;-56
2022/09/01 05:20:58;;;;;;;15.07;8.05;;;;;;;16.40;66.25;99701.25;5068670;28;20028;-57
2022/09/01 05:23:25;;;;;;;10.90;7.18;;;;;;;17.21;63.01;99699.59;5069762;28;20114;-56
2022/09/01 05:25:53;;;;;;;16.90;7.75;;;;;;;17.53;60.62;99701.13;5070902;28;20020;-56
2022/09/01 05:28:19;;;;;;;18.83;7.82;;;;;;;15.91;66.64;99701.69;5071076;28;20029;-57
2022/09/01 05:30:46;;;;;;;12.40;7.15;;;;;;;16.70;64.92;99702.31;5071489;28;20420;-56
2022/09/01 05:33:15;;;;;;;15.27;7.03;;;;;;;16.75;63.87;99710.47;5070940;28;20570;-56
2022/09/01 05:35:50;;;;;;;14.40;6.70;;;;;;;18.82;58.26;99704.69;5070553;28;20109;-56
2022/09/01 05:38:16;;;;;;;14.25;6.80;;;;;;;20.03;53.28;99709.88;5058625;28;20377;-56
2022/09/01 05:40:42;;;;;;;11.48;6.55;;;;;;;20.04;52.51;99713.41;5059674;28;20049;-56
2022/09/01 05:43:12;;;;;;;15.70;6.43;;;;;;;20.32;52.56;99714.38;5064043;28;20475;-56
2022/09/01 05:45:44;;;;;;;13.57;6.28;;;;;;;21.17;50.47;99714.34;5064912;28;20028;-57
2022/09/01 05:48:19;;;;;;;12.25;6.93;;;;;;;21.86;48.40;99715.16;5070277;28;20973;-56
2022/09/01 05:50:45;;;;;;;11.70;6.95;;;;;;;21.13;49.90;99711.41;5052565;28;20074;-56
2022/09/01 05:53:16;;;;;;;13.40;6.60;;;;;;;21.63;48.29;99714.28;5064101;28;20021;-56
2022/09/01 05:55:45;;;;;;;14.10;6.50;;;;;;;22.65;45.79;99710.41;5066546;28;20044;-56
2022/09/01 05:58:13;;;;;;;9.27;6.05;;;;;;;23.31;44.80;99708.69;5070452;28;20403;-56
2022/09/01 06:00:43;;;;;;;13.70;6.05;;;;;;;22.71;45.49;99714.63;5064003;28;20033;-57
2022/09/01 06:03:09;;;;;;;7.65;5.38;;;;;;;22.43;46.10;99717.47;5069114;28;20046;-56
2022/09/01 06:05:35;;;;;;;10.68;6.10;;;;;;;22.40;46.12;99718.91;5066121;28;20106;-56
2022/09/01 06:08:04;;;;;;;9.77;5.30;;;;;;;22.66;45.60;99731.16;5069719;28;20475;-56
2022/09/01 06:10:30;;;;;;;10.02;5.20;;;;;;;22.38;46.09;99723.06;5054020;28;20481;-56
2022/09/01 06:12:58;;;;;;;9.68;5.05;;;;;;;23.39;44.42;99727.09;5057621;28;20043;-57
2022/09/01 06:15:24;;;;;;;14.43;5.63;;;;;;;23.24;44.94;99719.31;5064377;28;20536;-55
2022/09/01 06:17:49;;;;;;;10.40;5.30;;;;;;;22.80;45.64;99716.28;5053459;28;20029;-56
2022/09/01 06:20:17;;;;;;;16.65;5.20;;;;;;;24.35;43.49;99716.34;5052386;28;20051;-56
2022/09/01 06:22:44;;;;;;;10.75;5.30;;;;;;;23.82;43.90;99718.25;5059970;28;20122;-56
2022/09/01 06:25:09;;;;;;;8.77;4.65;;;;;;;23.16;45.72;99717.31;5070050;28;20111;-54
2022/09/01 06:27:40;;;;;;;8.90;4.78;;;;;;;23.24;45.44;99716.56;5061528;28;20078;-57
2022/09/01 06:30:13;;;;;;;15.02;4.70;;;;;;;23.18;45.99;99721.34;5068745;28;20672;-56
2022/09/01 06:32:42;;;;;;;14.68;4.85;;;;;;;23.44;44.99;99728.88;5068970;28;20078;-55
2022/09/01 06:35:10;;;;;;;9.93;4.90;;;;;;;23.50;44.89;99732.28;5065206;28;20021;-56
2022/09/01 06:37:39;;;;;;;10.40;4.85;;;;;;;24.20;44.09;99725.84;5063211;28;20036;-56
2022/09/01 06:40:05;;;;;;;;;;;;;;;23.28;45.58;99731.22;5059045;28;20090;-56
2022/09/01 06:42:34;;;;;;;11.00;4.32;;;;;;;24.35;44.05;99731.97;5052412;28;19963;-56
2022/09/01 06:45:00;;;;;;;11.98;4.40;;;;;;;24.33;43.33;99738.56;5063355;28;20032;-56
2022/09/01 06:47:27;;;;;;;15.70;5.05;;;;;;;24.70;42.51;99736.34;5055594;28;20070;-56
2022/09/01 06:49:57;;;;;;;12.50;4.90;;;;;;;24.46;43.08;99741.50;5066302;28;20032;-55
2022/09/01 06:52:24;;;;;;;13.88;5.10;;;;;;;23.47;45.37;99737.25;5067894;28;20035;-55
2022/09/01 06:54:52;;;;;;;15.60;5.10;;;;;;;25.31;41.32;99735.41;5069900;28;20025;-56
2022/09/01 06:57:21;;;;;;;14.00;5.15;;;;;;;24.38;43.21;99728.59;5065015;28;20083;-56
2022/09/01 06:59:46;;;;;;;14.13;4.63;;;;;;;25.29;42.02;99734.94;5063237;28;20039;-56
2022/09/01 07:02:15;;;;;;;18.30;4.82;;;;;;;24.35;43.35;99731.97;5069479;28;20297;-56
2022/09/01 07:04:42;;;;;;;12.80;4.20;;;;;;;25.32;41.22;99737.84;5062845;28;20166;-56
2022/09/01 07:07:09;;;;;;;10.32;4.20;;;;;;;25.49;40.88;99734.22;5064390;28;20035;-56
2022/09/01 07:09:34;;;;;;;11.13;4.50;;;;;;;24.63;43.37;99732.47;5069689;28;20024;-56
2022/09/01 07:12:02;;;;;;;17.45;4.30;;;;;;;24.68;42.79;99738.59;5069169;28;20035;-56
2022/09/01 07:14:28;;;;;;;11.35;4.35;;;;;;;24.63;43.29;99740.69;5069810;28;20020;-55
2022/09/01 07:16:54;;;;;;;25.17;4.85;;;;;;;24.01;44.96;99741.75;5069076;28;20355;-57
2022/09/01 07:19:19;;;;;;;26.35;5.65;;;;;;;24.77;43.87;99740.53;5069701;28;20051;-56
2022/09/01 07:21:45;;;;;;;21.10;4.70;;;;;;;25.02;42.88;99747.09;5068712;28;20595;-55
2022/09/01 07:24:11;;;;;;;19.35;5.00;;;;;;;25.46;42.10;99745.88;5058739;28;20036;-56
2022/09/01 07:26:36;;;;;;;21.98;5.40;;;;;;;25.10;42.65;99744.31;5056847;28;20523;-56
2022/09/01 07:29:03;;;;;;;16.35;4.18;;;;;;;24.14;44.45;99745.50;5060160;28;20036;-56
2022/09/01 07:31:35;;;;;;;25.05;4.63;;;;;;;24.02;44.20;99746.13;5065727;28;20047;-55
2022/09/01 07:34:03;;;;;;;25.73;5.38;;;;;;;23.31;46.34;99747.00;5065573;28;20021;-55
2022/09/01 07:36:28;;;;;;;14.60;3.67;;;;;;;23.45;43.79;99750.44;5072759;28;20482;-55
2022/09/01 07:38:54;;;;;;;15.32;3.13;;;;;;;22.31;45.81;99749.97;5063774;28;20116;-54
2022/09/01 07:41:20;;;;;;;28.27;4.60;;;;;;;22.86;46.45;99741.56;5069240;28;20536;-55
2022/09/01 07:43:46;;;;;;;14.48;3.60;;;;;;;21.11;48.04;99749.06;5060946;28;20372;-56
2022/09/01 07:46:11;;;;;;;5.10;2.72;;;;;;;21.69;47.44;99747.72;5070413;28;20035;-55
2022/09/01 07:48:37;;;;;;;11.65;2.90;;;;;;;21.25;47.58;99733.53;5065878;28;20075;-55
2022/09/01 07:51:03;;;;;;;5.63;3.03;;;;;;;21.19;48.05;99744.81;5063833;28;20021;-55
2022/09/01 07:53:30;;;;;;;5.85;3.00;;;;;;;21.08;48.57;99734.13;5072592;28;20067;-54
2022/09/01 07:55:56;;;;;;;12.23;3.08;;;;;;;21.15;48.21;99739.19;5069097;28;20035;-54
2022/09/01 07:58:25;;;;;;;10.70;3.00;;;;;;;20.15;50.34;99733.13;5071566;28;20059;-54
2022/09/01 08:00:52;;;;;;;8.50;3.00;;;;;;;20.23;50.64;99735.19;5055720;28;20038;-54
2022/09/01 08:03:18;;;;;;;7.40;2.83;;;;;;;19.76;52.07;99732.25;5069740;28;20019;-54
2022/09/01 08:05:44;;;;;;;5.68;3.13;;;;;;;20.23;51.07;99735.19;5071263;28;20046;-54
2022/09/01 08:08:09;;;;;;;6.13;3.15;;;;;;;20.53;49.83;99733.13;5071276;28;20028;-54
2022/09/01 08:10:39;;;;;;;7.03;3.20;;;;;;;21.00;49.74;99739.47;5072248;28;20047;-54
2022/09/01 08:13:05;;;;;;;;;;;;;;;21.35;47.95;99740.72;5067093;28;20027;-54
2022/09/01 08:15:30;;;;;;;6.63;3.20;;;;;;;20.46;50.92;99745.16;5068502;28;19916;-55
2022/09/01 08:17:56;;;;;;;8.75;3.40;;;;;;;20.50;50.86;99741.88;5072117;28;20506;-55
2022/09/01 08:20:21;;;;;;;10.90;3.42;;;;;;;20.80;49.68;99746.88;5063128;28;20434;-55
2022/09/01 08:22:47;;;;;;;8.15;3.30;;;;;;;21.31;48.41;99740.50;5075850;28;20031;-54
2022/09/01 08:25:12;;;;;;;10.63;3.20;;;;;;;21.22;48.63;99750.50;5065277;28;20029;-54
2022/09/01 08:27:38;;;;;;;10.27;3.30;;;;;;;21.72;48.54;99744.41;5060799;28;20078;-55
2022/09/01 08:30:05;;;;;;;6.93;3.05;;;;;;;21.98;46.92;99739.22;5072911;28;20025;-55
2022/09/01 08:32:31;;;;;;;11.57;3.20;;;;;;;21.65;47.33;99752.97;5060292;28;20033;-55
2022/09/01 08:34:57;;;;;;;9.10;2.80;;;;;;;21.87;47.69;99749.53;5054622;28;20545;-55
2022/09/01 08:37:22;;;;;;;7.38;3.28;;;;;;;21.94;47.03;99743.66;5067570;28;20040;-55
2022/09/01 08:39:48;;;;;;;6.43;2.90;;;;;;;21.93;47.13;99739.31;5057570;28;20017;-55
2022/09/01 08:42:44;;;;;;;8.25;2.80;;;;;;;22.06;46.79;99743.94;5070950;28;20890;-54
2022/09/01 08:45:22;;;;;;;10.52;3.00;;;;;;;22.78;45.42;99747.78;5081735;28;20029;-55
2022/09/01 08:47:52;;;;;;;9.93;3.08;;;;;;;20.94;48.79;99740.63;5054037;28;20029;-54
2022/09/01 08:50:19;;;;;;;12.68;2.92;;;;;;;21.86;47.18;99747.09;5086429;28;20067;-55
2022/09/01 08:52:48;;;;;;;6.55;2.80;;;;;;;21.98;46.91;99736.47;5070766;28;20136;-55
2022/09/01 08:55:30;;;;;;;7.93;2.72;;;;;;;22.72;45.07;99735.38;5051652;28;20057;-54
2022/09/01 08:57:56;;;;;;;8.20;3.05;;;;;;;23.33;43.70;99738.47;5100076;28;20028;-54
2022/09/01 09:00:38;;;;;;;5.70;2.85;;;;;;;22.48;45.58;99741.94;5070329;28;20070;-55
2022/09/01 09:03:05;;;;;;;8.15;2.95;;;;;;;22.16;46.79;99735.53;5053352;28;20060;-55
2022/09/01 09:05:42;;;;;;;14.65;2.88;;;;;;;23.04;44.58;99732.41;5097472;28;20068;-55
2022/09/01 09:08:13;;;;;;;8.00;2.80;;;;;;;22.02;47.00;99733.97;5064488;28;20029;-55
2022/09/01 09:11:19;;;;;;;6.15;2.85;;;;;;;22.75;45.61;99732.81;5064447;28;20440;-55
2022/09/01 09:14:06;;;;;;;5.18;2.90;;;;;;;23.10;44.58;99730.31;5065314;28;20031;-55
2022/09/01 09:16:48;;;;;;;7.90;2.90;;;;;;;22.78;45.13;99721.25;5065885;28;20037;-55
2022/09/01 09:19:25;;;;;;;5.50;3.28;;;;;;;21.46;48.31;99727.72;5065704;28;20479;-55
2022/09/01 09:21:52;;;;;;;8.48;3.28;;;;;;;21.76;47.79;99718.91;5071771;28;20044;-54
2022/09/01 09:24:46;;;;;;;9.05;3.00;;;;;;;22.37;46.94;99727.72;5069506;28;20029;-55
2022/09/01 09:27:31;;;;;;;8.20;2.90;;;;;;;23.39;45.42;99726.28;5062220;28;20029;-55
2022/09/01 09:30:07;;;;;;;11.60;3.20;;;;;;;22.61;46.74;99719.25;5066118;28;20471;-55
2022/09/01 09:32:49;;;;;;;9.30;3.28;;;;;;;22.17;47.12;99725.44;5064444;28;20036;-54
2022/09/01 09:35:25;;;;;;;7.30;3.10;;;;;;;22.74;46.57;99711.25;5068497;28;20073;-53
2022/09/01 09:37:51;;;;;;;9.73;3.55;;;;;;;22.35;47.27;99710.84;5062420;28;20029;-54
2022/09/01 09:40:22;;;;;;;13.82;3.50;;;;;;;22.69;47.71;99714.13;5053954;28;20025;-55
2022/09/01 09:43:00;;;;;;;12.77;3.15;;;;;;;21.46;50.07;99714.88;5058576;28;20028;-54
2022/09/01 09:45:39;;;;;;;7.32;3.15;;;;;;;21.22;50.89;99706.09;5062948;28;20025;-55
2022/09/01 09:48:09;;;;;;;9.30;3.60;;;;;;;22.10;48.73;99697.75;5101519;28;20036;-55
2022/09/01 09:50:39;;;;;;;9.45;3.38;;;;;;;23.35;46.04;99701.50;5070691;28;20028;-55
2022/09/01 09:53:12;;;;;;;7.05;3.17;;;;;;;22.48;48.09;99697.44;5070303;28;20021;-55
2022/09/01 09:55:50;;;;;;;8.85;3.63;;;;;;;21.97;49.54;99696.66;5066900;28;20036;-55
2022/09/01 09:58:16;;;;;;;6.20;3.78;;;;;;;22.40;48.54;99694.31;5060430;28;20475;-55
2022/09/01 10:00:43;;;;;;;8.30;3.90;;;;;;;22.51;48.63;99703.06;5066072;28;20032;-55
2022/09/01 10:03:10;;;;;;;15.23;3.80;;;;;;;22.36;48.26;99706.97;5047352;28;20435;-56
2022/09/01 10:05:36;;;;;;;9.18;3.88;;;;;;;22.46;48.59;99691.47;5077386;28;20045;-55
2022/09/01 10:08:03;;;;;;;6.25;3.70;;;;;;;21.99;50.12;99680.81;5062728;28;20033;-54
2022/09/01 10:10:50;;;;;;;7.18;3.63;;;;;;;22.81;47.99;99685.13;5065887;28;20112;-55
2022/09/01 10:13:19;;;;;;;6.40;3.72;;;;;;;22.68;48.37;99685.19;5059366;28;20053;-53
2022/09/01 10:15:49;;;;;;;9.70;4.13;;;;;;;21.69;50.86;99693.16;5090721;28;20032;-54
2022/09/01 10:18:17;;;;;;;9.43;4.22;;;;;;;21.25;52.50;99683.69;5057572;28;20066;-55
2022/09/01 10:20:54;;;;;;;5.32;3.65;;;;;;;22.60;49.47;99684.81;5066498;28;20055;-54
2022/09/01 10:23:20;;;;;;;8.23;3.92;;;;;;;22.36;49.73;99685.13;5063971;28;20032;-55
2022/09/01 10:25:45;;;;;;;8.68;4.22;;;;;;;21.96;49.91;99684.94;5070164;28;20387;-53
2022/09/01 10:28:16;;;;;;;8.95;4.05;;;;;;;22.47;50.02;99680.25;5056266;28;20498;-55
2022/09/01 10:30:43;;;;;;;10.70;4.32;;;;;;;22.39;50.15;99675.53;5068394;28;20378;-55
2022/09/01 10:33:08;;;;;;;8.98;4.10;;;;;;;23.41;47.34;99675.63;5069823;28;20106;-55
2022/09/01 10:35:36;;;;;;;8.52;3.80;;;;;;;23.82;46.30;99663.50;5065220;28;20408;-54
2022/09/01 10:38:05;;;;;;;9.60;4.05;;;;;;;22.45;48.42;99690.69;5035583;28;20356;-55
2022/09/01 10:40:37;;;;;;;7.55;4.15;;;;;;;21.22;51.47;99668.72;5058026;28;20379;-55
2022/09/01 10:43:37;;;;;;;5.30;3.97;;;;;;;22.06;49.94;99674.91;5052593;28;20120;-55
2022/09/01 10:46:21;;;;;;;6.85;3.67;;;;;;;22.61;48.69;99672.81;5068261;28;20028;-55
2022/09/01 10:48:50;;;;;;;7.75;4.10;;;;;;;22.44;48.70;99680.03;5069389;28;20581;-54
2022/09/01 10:51:15;;;;;;;7.43;3.70;;;;;;;23.03;47.46;99664.34;5068404;28;20032;-55
2022/09/01 10:53:54;;;;;;;7.32;4.00;;;;;;;22.18;49.26;99665.06;5069435;28;20107;-55
2022/09/01 10:56:36;;;;;;;7.47;3.90;;;;;;;22.60;48.11;99662.97;5063418;28;20120;-55
2022/09/01 10:59:21;;;;;;;8.55;3.92;;;;;;;22.25;48.58;99661.13;5051829;28;20263;-55
2022/09/01 11:01:47;;;;;;;8.32;4.05;;;;;;;22.20;49.04;99647.59;5060812;28;20024;-55
2022/09/01 11:04:16;;;;;;;6.15;3.80;;;;;;;22.28;49.15;99661.31;5065829;28;20029;-56
2022/09/01 11:06:44;;;;;;;7.97;4.03;;;;;;;22.90;47.64;99655.09;5060918;28;20052;-55
2022/09/01 11:09:19;;;;;;;6.18;4.28;;;;;;;22.75;47.81;99664.50;5073378;28;20033;-55
2022/09/01 11:12:11;;;;;;;11.27;3.75;;;;;;;21.97;49.10;99650.28;5073270;28;20035;-54
2022/09/01 11:14:49;;;;;;;8.10;3.92;;;;;;;22.27;49.06;99653.44;5067806;28;20044;-54
2022/09/01 11:17:31;;;;;;;20.85;4.57;;;;;;;22.59;48.32;99650.44;5056759;28;20102;-55
2022/09/01 11:20:02;;;;;;;6.20;3.70;;;;;;;21.98;49.46;99651.88;5056218;28;20032;-55
2022/09/01 11:22:45;;;;;;;6.90;3.92;;;;;;;22.08;49.66;99646.19;5060547;28;20032;-55
2022/09/01 11:25:31;;;;;;;9.63;4.18;;;;;;;22.32;48.44;99653.31;5064509;28;20558;-55
2022/09/01 11:27:58;;;;;;;7.63;4.05;;;;;;;22.88;47.09;99646.41;5056415;28;20396;-54
2022/09/01 11:30:54;;;;;;;8.65;3.88;;;;;;;22.62;47.09;99643.56;5067991;28;20087;-55
2022/09/01 11:33:45;;;;;;;5.78;3.30;;;;;;;21.90;49.11;99647.16;5072741;28;20032;-53
2022/09/01 11:36:35;;;;;;;8.32;4.30;;;;;;;22.46;48.12;99642.31;5072955;28;20025;-54
2022/09/01 11:39:17;;;;;;;9.95;3.85;;;;;;;22.76;47.36;99635.25;5064744;28;20095;-53
2022/09/01 11:41:55;;;;;;;9.73;3.70;;;;;;;22.33;48.08;99646.72;5056014;28;20060;-55
2022/09/01 11:44:24;;;;;;;9.00;3.80;;;;;;;22.42;47.77;99639.41;5067795;28;20025;-54
2022/09/01 11:46:50;;;;;;;12.73;3.78;;;;;;;23.02;46.56;99644.44;5061118;28;20116;-54